Norwegian Spirit — C6TQ6 — position and weather

sailwx.info

Track history (hours):
 
Tides and Currents Weather Stations Pressure Air Temp Water Temp Dewpoint Dewpoint Depression Visibility Wind Speed Wind Dir Waves Ship Positions

Norwegian Spirit

Operator: Norwegian Cruise Line

Last reported at 2017-Sep-26 05:30 UTC. Time now 2017-Sep-26 05:48 UTC.
Position N 39°33' E 002°38'.

Type: Passenger vessel. MMSI: 311746000.

Date/timePositionNaut miles runAvg speedWind from/ knotsBaromVisibWave heightAir tempDewpointWater temp
2017-Sep-26 05:30N 39°33' E 002°38'1 2.5
2017-Sep-26 05:00N 39°32' E 002°38'5 9.7
2017-Sep-26 04:30N 39°28' E 002°35'612.7
2017-Sep-26 04:00N 39°25' E 002°28'713.5
2017-Sep-26 03:30N 39°26' E 002°19'612.2
2017-Sep-26 03:00N 39°31' E 002°14'612.2
2017-Sep-26 02:30N 39°37' E 002°11'713.4
2017-Sep-26 02:00N 39°43' E 002°11'713.3
2017-Sep-26 01:30N 39°50' E 002°11'510.1
2017-Sep-26 01:00N 39°55' E 002°11'510.8
2017-Sep-26 00:30N 40°00' E 002°09'510.5
2017-Sep-26 00:00N 40°05' E 002°11'611.5
2017-Sep-25 23:30N 40°11' E 002°11'612.6
2017-Sep-25 23:00N 40°17' E 002°10'612.5
2017-Sep-25 22:30N 40°23' E 002°11'612.3
2017-Sep-25 22:00N 40°30' E 002°11'611.8
2017-Sep-25 21:30N 40°36' E 002°11'611.9
2017-Sep-25 21:00N 40°41' E 002°11'612.1
2017-Sep-25 20:30N 40°47' E 002°11'612.3
2017-Sep-25 20:00N 40°54' E 002°09'612.0
2017-Sep-25 19:30N 40°60' E 002°09'612.0
2017-Sep-25 19:00N 41°06' E 002°09'612.0
2017-Sep-25 18:30N 41°12' E 002°10'713.7
2017-Sep-25 18:00N 41°18' E 002°10'3 4.4
2017-Sep-25 17:15N 41°22' E 002°11'0 0.0
2017-Sep-25 16:19N 41°22' E 002°11'0 0.0
2017-Sep-25 15:13N 41°22' E 002°11'0 0.0
2017-Sep-25 14:49N 41°22' E 002°11'0 0.0
2017-Sep-25 14:25N 41°22' E 002°11'0 0.0
2017-Sep-25 09:01N 41°22' E 002°11'0 0.0
2017-Sep-25 08:49N 41°22' E 002°11'0 0.0
2017-Sep-25 05:13N 41°22' E 002°11'0 0.0
2017-Sep-25 04:59N 41°22' E 002°11'1 1.3
2017-Sep-25 04:30N 41°21' E 002°10'4 7.4
2017-Sep-25 03:56N 41°17' E 002°11'613.9
2017-Sep-25 03:30N 41°19' E 002°19'815.9
2017-Sep-25 03:00N 41°23' E 002°27'816.0
2017-Sep-25 02:30N 41°28' E 002°36'816.2
2017-Sep-25 02:00N 41°32' E 002°46'916.6
2017-Sep-25 01:28N 41°37' E 002°56'1015.9
2017-Sep-25 00:52N 41°42' E 003°07'615.8
2017-Sep-25 00:30N 41°45' E 003°13'815.7
2017-Sep-25 00:00N 41°49' E 003°22'815.4
2017-Sep-24 23:30N 41°53' E 003°31'815.5
2017-Sep-24 23:00N 41°58' E 003°38'816.1
2017-Sep-24 22:30N 42°04' E 003°46'816.4
2017-Sep-24 22:00N 42°10' E 003°53'816.7
2017-Sep-24 21:30N 42°16' E 004°01'816.3
2017-Sep-24 21:00N 42°22' E 004°08'816.1
2017-Sep-24 20:30N 42°28' E 004°16'816.1
2017-Sep-24 20:00N 42°34' E 004°23'816.4
2017-Sep-24 19:31N 42°40' E 004°31'816.3
2017-Sep-24 19:00N 42°46' E 004°38'816.4
2017-Sep-24 18:31N 42°52' E 004°46'816.1
2017-Sep-24 18:00N 42°58' E 004°54'816.3
2017-Sep-24 17:30N 43°04' E 005°01'816.0
2017-Sep-24 17:00N 43°10' E 005°08'815.5
2017-Sep-24 16:30N 43°17' E 005°11'713.3
2017-Sep-24 16:01N 43°21' E 005°19'1 1.7
2017-Sep-24 15:28N 43°21' E 005°20'0 0.0
2017-Sep-24 14:58N 43°21' E 005°20'0 0.0
2017-Sep-24 14:28N 43°21' E 005°20'0 0.0
2017-Sep-24 13:55N 43°21' E 005°20'0 0.0
2017-Sep-24 13:28N 43°21' E 005°20'0 0.0
2017-Sep-24 12:58N 43°21' E 005°20'0 0.0
2017-Sep-24 12:28N 43°21' E 005°20'0 0.0
2017-Sep-24 11:52N 43°21' E 005°20'0 0.0
2017-Sep-24 11:28N 43°21' E 005°20'0 0.0
2017-Sep-24 10:58N 43°21' E 005°20'0 0.0
2017-Sep-24 10:25N 43°21' E 005°20'0 0.0
2017-Sep-24 09:58N 43°21' E 005°20'0 0.0
2017-Sep-24 09:28N 43°21' E 005°20'0 0.0
2017-Sep-24 08:52N 43°21' E 005°20'0 0.0
2017-Sep-24 08:28N 43°21' E 005°20'0 0.0
2017-Sep-24 07:55N 43°21' E 005°20'0 0.0
2017-Sep-24 07:28N 43°21' E 005°20'0 0.0
2017-Sep-24 06:58N 43°21' E 005°20'0 0.0
2017-Sep-24 06:28N 43°21' E 005°20'0 0.0
2017-Sep-24 06:00N 43°21' E 005°20'1 2.3
2017-Sep-24 05:30N 43°21' E 005°19'3 5.9
2017-Sep-24 05:00N 43°19' E 005°16'3 6.3
2017-Sep-24 04:30N 43°17' E 005°13'5 9.4
2017-Sep-24 04:00N 43°13' E 005°10'611.4
2017-Sep-24 03:30N 43°07' E 005°11'611.0
2017-Sep-24 03:00N 43°02' E 005°15'510.9
2017-Sep-24 02:30N 42°58' E 005°20'611.2
2017-Sep-24 02:00N 42°55' E 005°27'611.3
2017-Sep-24 01:30N 42°53' E 005°34'611.1
2017-Sep-24 01:01N 42°51' E 005°41'611.1
2017-Sep-24 00:31N 42°49' E 005°48'611.2
2017-Sep-24 00:00N 42°48' E 005°55'611.1
2017-Sep-23 23:30N 42°47' E 006°03'711.0
2017-Sep-23 22:52N 42°46' E 006°12'24 9.4
2017-Sep-23 20:16N 42°59' E 006°40'311.1
2017-Sep-23 20:00N 43°01' E 006°42'6 6.1
2017-Sep-23 19:00N 43°06' E 006°48'112 5.1 230 / 81026.0 5.4 20.0
2017-Sep-22 21:00N 43°30' E 009°18'41 2.2 160 / 101028.0 5.4 21.0
2017-Sep-22 02:00N 43°12' E 010°08'612.7
2017-Sep-22 01:30N 43°05' E 010°07'712.5
2017-Sep-22 00:56N 42°58' E 010°06'1112.6
2017-Sep-22 00:06N 42°48' E 010°02'111.6
2017-Sep-21 23:59N 42°47' E 010°02'1311.8
2017-Sep-21 22:55N 42°37' E 010°14'712.6
2017-Sep-21 22:24N 42°32' E 010°19'612.5
2017-Sep-21 21:56N 42°27' E 010°24'2411.8
2017-Sep-21 19:53N 42°08' E 010°42'510.8
2017-Sep-21 19:27N 42°06' E 010°48'715.6
2017-Sep-21 19:00N 42°00' E 010°54'416.6 250 / 101027.0 5.4 19.0
2017-Sep-21 18:44N 42°03' E 010°58'311.1
2017-Sep-21 18:30N 42°02' E 011°01'75 3.5
2017-Sep-20 21:00N 40°54' E 011°42'1818.0 320 / 201024.0 5.4 21.0
2017-Sep-20 20:00N 40°36' E 011°42'23712.2 330 / 191023.0 5.4 20.0
2017-Sep-20 00:30N 36°52' E 013°21'713.9
2017-Sep-20 00:00N 36°47' E 013°27'713.7
2017-Sep-19 23:30N 36°43' E 013°34'713.4
2017-Sep-19 23:00N 36°38' E 013°40'713.1
2017-Sep-19 22:30N 36°34' E 013°46'713.1
2017-Sep-19 22:00N 36°29' E 013°51'613.0
2017-Sep-19 21:30N 36°25' E 013°57'713.1
2017-Sep-19 21:00N 36°20' E 014°04'4361.0
2017-Sep-19 21:00N 36°18' E 014°00'816.6 330 / 361021.0 5.4 23.0
2017-Sep-19 20:30N 36°16' E 014°10'713.4
2017-Sep-19 20:00N 36°11' E 014°16'6666.5
2017-Sep-19 20:00N 36°06' E 014°12'715.0 310 / 391021.0 5.4 24.0
2017-Sep-19 19:30N 36°06' E 014°21'613.1
2017-Sep-19 19:00N 36°02' E 014°27'3322.4
2017-Sep-19 19:00N 36°00' E 014°24'815.5 310 / 351020.0 5.4 24.0
2017-Sep-19 18:29N 35°57' E 014°33'4 1.0
2017-Sep-19 14:41N 35°53' E 014°31'1 0.2
2017-Sep-19 10:15N 35°54' E 014°31'2 6.4
2017-Sep-19 10:00N 35°55' E 014°33'815.0
2017-Sep-19 09:30N 35°58' E 014°41'916.7
2017-Sep-19 09:00N 36°02' E 014°51'2713.6
2017-Sep-19 07:00N 36°06' E 015°24'5120.6 340 / 131020.0 5.4 24.0
2017-Sep-19 04:30N 36°24' E 016°24'14617.2
2017-Sep-18 20:00N 37°06' E 019°18'2020.0 340 / 121022.0 5.4 25.0
2017-Sep-18 19:00N 37°12' E 019°42'1414.3 340 / 161022.0 2.2 25.0
2017-Sep-18 18:00N 37°12' E 020°00'3419.3 330 / 211021.0 5.4 25.0
2017-Sep-18 16:12N 37°27' E 020°39'316.9
2017-Sep-18 16:00N 37°28' E 020°43'2617.2
2017-Sep-18 14:31N 37°35' E 021°14'017.0
2017-Sep-18 14:30N 37°35' E 021°14'77 4.5
2017-Sep-17 21:21N 38°33' E 020°10'412.4
2017-Sep-17 21:00N 38°37' E 020°12'712.8
2017-Sep-17 20:29N 38°43' E 020°14'714.5
2017-Sep-17 20:00N 38°50' E 020°16'42665.8
2017-Sep-17 20:00N 38°48' E 020°12'1021.1 230 / 101022.0 5.4 25.0
2017-Sep-17 19:30N 38°57' E 020°17'714.2
2017-Sep-17 19:00N 39°04' E 020°19'714.2
2017-Sep-17 18:30N 39°11' E 020°19'713.7
2017-Sep-17 18:00N 39°18' E 020°16'6402.7
2017-Sep-17 18:00N 39°12' E 020°12'1223.8 110 / 91021.0 5.4 25.0
2017-Sep-17 17:29N 39°24' E 020°10'714.6
2017-Sep-17 17:00N 39°30' E 020°05'713.5
2017-Sep-17 16:30N 39°35' E 019°60'12 1.2
2017-Sep-17 06:16N 39°48' E 019°59'413.6
2017-Sep-17 06:00N 39°50' E 019°56'715.2
2017-Sep-17 05:30N 39°55' E 019°48'815.5
2017-Sep-17 05:01N 39°59' E 019°39'815.6
2017-Sep-17 04:31N 40°03' E 019°31'816.0
2017-Sep-17 04:00N 40°08' E 019°23'816.6
2017-Sep-17 03:30N 40°13' E 019°14'816.5
2017-Sep-17 03:00N 40°19' E 019°06'816.8
2017-Sep-17 02:30N 40°25' E 018°59'816.7
2017-Sep-17 02:01N 40°32' E 018°52'816.5
2017-Sep-17 01:30N 40°38' E 018°46'816.5
2017-Sep-17 01:00N 40°45' E 018°39'816.6
2017-Sep-17 00:30N 40°51' E 018°32'816.6
2017-Sep-17 00:00N 40°58' E 018°25'816.7
2017-Sep-16 23:30N 41°04' E 018°18'916.9
2017-Sep-16 23:00N 41°10' E 018°10'1019.9
2017-Sep-16 22:31N 41°18' E 018°02'1320.2
2017-Sep-16 21:51N 41°28' E 017°51'820.0
2017-Sep-16 21:25N 41°34' E 017°43'613.1
2017-Sep-16 21:00N 41°36' E 017°36'1925.9 150 / 241018.0 5.4 24.0
2017-Sep-16 20:16N 41°52' E 017°23'414.8
2017-Sep-16 20:00N 41°54' E 017°18'1818.0 150 / 271018.0 5.4 24.0
2017-Sep-16 19:00N 42°06' E 017°00'   130 / 281017.0 5.4 24.0
Track history (hours):
 
Tides and Currents Weather Stations Pressure Air Temp Water Temp Dewpoint Dewpoint Depression Visibility Wind Speed Wind Dir Waves Ship Positions

Norwegian Spirit

Operator: Norwegian Cruise Line

Last reported at 2017-Sep-26 05:30 UTC. Time now 2017-Sep-26 05:48 UTC.
Position N 39°33' E 002°38'.

Type: Passenger vessel. MMSI: 311746000.

Date/timePositionNaut miles runAvg speedWind from/ knotsBaromVisibWave heightAir tempDewpointWater temp
2017-Sep-26 05:30N 39°33' E 002°38'1 2.5
2017-Sep-26 05:00N 39°32' E 002°38'5 9.7
2017-Sep-26 04:30N 39°28' E 002°35'612.7
2017-Sep-26 04:00N 39°25' E 002°28'713.5
2017-Sep-26 03:30N 39°26' E 002°19'612.2
2017-Sep-26 03:00N 39°31' E 002°14'612.2
2017-Sep-26 02:30N 39°37' E 002°11'713.4
2017-Sep-26 02:00N 39°43' E 002°11'713.3
2017-Sep-26 01:30N 39°50' E 002°11'510.1
2017-Sep-26 01:00N 39°55' E 002°11'510.8
2017-Sep-26 00:30N 40°00' E 002°09'510.5
2017-Sep-26 00:00N 40°05' E 002°11'611.5
2017-Sep-25 23:30N 40°11' E 002°11'612.6
2017-Sep-25 23:00N 40°17' E 002°10'612.5
2017-Sep-25 22:30N 40°23' E 002°11'612.3
2017-Sep-25 22:00N 40°30' E 002°11'611.8
2017-Sep-25 21:30N 40°36' E 002°11'611.9
2017-Sep-25 21:00N 40°41' E 002°11'612.1
2017-Sep-25 20:30N 40°47' E 002°11'612.3
2017-Sep-25 20:00N 40°54' E 002°09'612.0
2017-Sep-25 19:30N 40°60' E 002°09'612.0
2017-Sep-25 19:00N 41°06' E 002°09'612.0
2017-Sep-25 18:30N 41°12' E 002°10'713.7
2017-Sep-25 18:00N 41°18' E 002°10'3 4.4
2017-Sep-25 17:15N 41°22' E 002°11'0 0.0
2017-Sep-25 16:19N 41°22' E 002°11'0 0.0
2017-Sep-25 15:13N 41°22' E 002°11'0 0.0
2017-Sep-25 14:49N 41°22' E 002°11'0 0.0
2017-Sep-25 14:25N 41°22' E 002°11'0 0.0
2017-Sep-25 09:01N 41°22' E 002°11'0 0.0
2017-Sep-25 08:49N 41°22' E 002°11'0 0.0
2017-Sep-25 05:13N 41°22' E 002°11'0 0.0
2017-Sep-25 04:59N 41°22' E 002°11'1 1.3
2017-Sep-25 04:30N 41°21' E 002°10'4 7.4
2017-Sep-25 03:56N 41°17' E 002°11'613.9
2017-Sep-25 03:30N 41°19' E 002°19'815.9
2017-Sep-25 03:00N 41°23' E 002°27'816.0
2017-Sep-25 02:30N 41°28' E 002°36'816.2
2017-Sep-25 02:00N 41°32' E 002°46'916.6
2017-Sep-25 01:28N 41°37' E 002°56'1015.9
2017-Sep-25 00:52N 41°42' E 003°07'615.8
2017-Sep-25 00:30N 41°45' E 003°13'815.7
2017-Sep-25 00:00N 41°49' E 003°22'815.4
2017-Sep-24 23:30N 41°53' E 003°31'815.5
2017-Sep-24 23:00N 41°58' E 003°38'816.1
2017-Sep-24 22:30N 42°04' E 003°46'816.4
2017-Sep-24 22:00N 42°10' E 003°53'816.7
2017-Sep-24 21:30N 42°16' E 004°01'816.3
2017-Sep-24 21:00N 42°22' E 004°08'816.1
2017-Sep-24 20:30N 42°28' E 004°16'816.1
2017-Sep-24 20:00N 42°34' E 004°23'816.4
2017-Sep-24 19:31N 42°40' E 004°31'816.3
2017-Sep-24 19:00N 42°46' E 004°38'816.4
2017-Sep-24 18:31N 42°52' E 004°46'816.1
2017-Sep-24 18:00N 42°58' E 004°54'816.3
2017-Sep-24 17:30N 43°04' E 005°01'816.0
2017-Sep-24 17:00N 43°10' E 005°08'815.5
2017-Sep-24 16:30N 43°17' E 005°11'713.3
2017-Sep-24 16:01N 43°21' E 005°19'1 1.7
2017-Sep-24 15:28N 43°21' E 005°20'0 0.0
2017-Sep-24 14:58N 43°21' E 005°20'0 0.0
2017-Sep-24 14:28N 43°21' E 005°20'0 0.0
2017-Sep-24 13:55N 43°21' E 005°20'0 0.0
2017-Sep-24 13:28N 43°21' E 005°20'0 0.0
2017-Sep-24 12:58N 43°21' E 005°20'0 0.0
2017-Sep-24 12:28N 43°21' E 005°20'0 0.0
2017-Sep-24 11:52N 43°21' E 005°20'0 0.0
2017-Sep-24 11:28N 43°21' E 005°20'0 0.0
2017-Sep-24 10:58N 43°21' E 005°20'0 0.0
2017-Sep-24 10:25N 43°21' E 005°20'0 0.0
2017-Sep-24 09:58N 43°21' E 005°20'0 0.0
2017-Sep-24 09:28N 43°21' E 005°20'0 0.0
2017-Sep-24 08:52N 43°21' E 005°20'0 0.0
2017-Sep-24 08:28N 43°21' E 005°20'0 0.0
2017-Sep-24 07:55N 43°21' E 005°20'0 0.0
2017-Sep-24 07:28N 43°21' E 005°20'0 0.0
2017-Sep-24 06:58N 43°21' E 005°20'0 0.0
2017-Sep-24 06:28N 43°21' E 005°20'0 0.0
2017-Sep-24 06:00N 43°21' E 005°20'1 2.3
2017-Sep-24 05:30N 43°21' E 005°19'3 5.9
2017-Sep-24 05:00N 43°19' E 005°16'3 6.3
2017-Sep-24 04:30N 43°17' E 005°13'5 9.4
2017-Sep-24 04:00N 43°13' E 005°10'611.4
2017-Sep-24 03:30N 43°07' E 005°11'611.0
2017-Sep-24 03:00N 43°02' E 005°15'510.9
2017-Sep-24 02:30N 42°58' E 005°20'611.2
2017-Sep-24 02:00N 42°55' E 005°27'611.3
2017-Sep-24 01:30N 42°53' E 005°34'611.1
2017-Sep-24 01:01N 42°51' E 005°41'611.1
2017-Sep-24 00:31N 42°49' E 005°48'611.2
2017-Sep-24 00:00N 42°48' E 005°55'611.1
2017-Sep-23 23:30N 42°47' E 006°03'711.0
2017-Sep-23 22:52N 42°46' E 006°12'24 9.4
2017-Sep-23 20:16N 42°59' E 006°40'311.1
2017-Sep-23 20:00N 43°01' E 006°42'6 6.1
2017-Sep-23 19:00N 43°06' E 006°48'112 5.1 230 / 81026.0 5.4 20.0
2017-Sep-22 21:00N 43°30' E 009°18'41 2.2 160 / 101028.0 5.4 21.0
2017-Sep-22 02:00N 43°12' E 010°08'612.7
2017-Sep-22 01:30N 43°05' E 010°07'712.5
2017-Sep-22 00:56N 42°58' E 010°06'1112.6
2017-Sep-22 00:06N 42°48' E 010°02'111.6
2017-Sep-21 23:59N 42°47' E 010°02'1311.8
2017-Sep-21 22:55N 42°37' E 010°14'712.6
2017-Sep-21 22:24N 42°32' E 010°19'612.5
2017-Sep-21 21:56N 42°27' E 010°24'2411.8
2017-Sep-21 19:53N 42°08' E 010°42'510.8
2017-Sep-21 19:27N 42°06' E 010°48'715.6
2017-Sep-21 19:00N 42°00' E 010°54'416.6 250 / 101027.0 5.4 19.0
2017-Sep-21 18:44N 42°03' E 010°58'311.1
2017-Sep-21 18:30N 42°02' E 011°01'75 3.5
2017-Sep-20 21:00N 40°54' E 011°42'1818.0 320 / 201024.0 5.4 21.0
2017-Sep-20 20:00N 40°36' E 011°42'23712.2 330 / 191023.0 5.4 20.0
2017-Sep-20 00:30N 36°52' E 013°21'713.9
2017-Sep-20 00:00N 36°47' E 013°27'713.7
2017-Sep-19 23:30N 36°43' E 013°34'713.4
2017-Sep-19 23:00N 36°38' E 013°40'713.1
2017-Sep-19 22:30N 36°34' E 013°46'713.1
2017-Sep-19 22:00N 36°29' E 013°51'613.0
2017-Sep-19 21:30N 36°25' E 013°57'713.1
2017-Sep-19 21:00N 36°20' E 014°04'4361.0
2017-Sep-19 21:00N 36°18' E 014°00'816.6 330 / 361021.0 5.4 23.0
2017-Sep-19 20:30N 36°16' E 014°10'713.4
2017-Sep-19 20:00N 36°11' E 014°16'6666.5
2017-Sep-19 20:00N 36°06' E 014°12'715.0 310 / 391021.0 5.4 24.0
2017-Sep-19 19:30N 36°06' E 014°21'613.1
2017-Sep-19 19:00N 36°02' E 014°27'3322.4
2017-Sep-19 19:00N 36°00' E 014°24'815.5 310 / 351020.0 5.4 24.0
2017-Sep-19 18:29N 35°57' E 014°33'4 1.0
2017-Sep-19 14:41N 35°53' E 014°31'1 0.2
2017-Sep-19 10:15N 35°54' E 014°31'2 6.4
2017-Sep-19 10:00N 35°55' E 014°33'815.0
2017-Sep-19 09:30N 35°58' E 014°41'916.7
2017-Sep-19 09:00N 36°02' E 014°51'2713.6
2017-Sep-19 07:00N 36°06' E 015°24'5120.6 340 / 131020.0 5.4 24.0
2017-Sep-19 04:30N 36°24' E 016°24'14617.2
2017-Sep-18 20:00N 37°06' E 019°18'2020.0 340 / 121022.0 5.4 25.0
2017-Sep-18 19:00N 37°12' E 019°42'1414.3 340 / 161022.0 2.2 25.0
2017-Sep-18 18:00N 37°12' E 020°00'3419.3 330 / 211021.0 5.4 25.0
2017-Sep-18 16:12N 37°27' E 020°39'316.9
2017-Sep-18 16:00N 37°28' E 020°43'2617.2
2017-Sep-18 14:31N 37°35' E 021°14'017.0
2017-Sep-18 14:30N 37°35' E 021°14'77 4.5
2017-Sep-17 21:21N 38°33' E 020°10'412.4
2017-Sep-17 21:00N 38°37' E 020°12'712.8
2017-Sep-17 20:29N 38°43' E 020°14'714.5
2017-Sep-17 20:00N 38°50' E 020°16'42665.8
2017-Sep-17 20:00N 38°48' E 020°12'1021.1 230 / 101022.0 5.4 25.0
2017-Sep-17 19:30N 38°57' E 020°17'714.2
2017-Sep-17 19:00N 39°04' E 020°19'714.2
2017-Sep-17 18:30N 39°11' E 020°19'713.7
2017-Sep-17 18:00N 39°18' E 020°16'6402.7
2017-Sep-17 18:00N 39°12' E 020°12'1223.8 110 / 91021.0 5.4 25.0
2017-Sep-17 17:29N 39°24' E 020°10'714.6
2017-Sep-17 17:00N 39°30' E 020°05'713.5
2017-Sep-17 16:30N 39°35' E 019°60'12 1.2
2017-Sep-17 06:16N 39°48' E 019°59'413.6
2017-Sep-17 06:00N 39°50' E 019°56'715.2
2017-Sep-17 05:30N 39°55' E 019°48'815.5
2017-Sep-17 05:01N 39°59' E 019°39'815.6
2017-Sep-17 04:31N 40°03' E 019°31'816.0
2017-Sep-17 04:00N 40°08' E 019°23'816.6
2017-Sep-17 03:30N 40°13' E 019°14'816.5
2017-Sep-17 03:00N 40°19' E 019°06'816.8
2017-Sep-17 02:30N 40°25' E 018°59'816.7
2017-Sep-17 02:01N 40°32' E 018°52'816.5
2017-Sep-17 01:30N 40°38' E 018°46'816.5
2017-Sep-17 01:00N 40°45' E 018°39'816.6
2017-Sep-17 00:30N 40°51' E 018°32'816.6
2017-Sep-17 00:00N 40°58' E 018°25'816.7
2017-Sep-16 23:30N 41°04' E 018°18'916.9
2017-Sep-16 23:00N 41°10' E 018°10'1019.9
2017-Sep-16 22:31N 41°18' E 018°02'1320.2
2017-Sep-16 21:51N 41°28' E 017°51'820.0
2017-Sep-16 21:25N 41°34' E 017°43'613.1
2017-Sep-16 21:00N 41°36' E 017°36'1925.9 150 / 241018.0 5.4 24.0
2017-Sep-16 20:16N 41°52' E 017°23'414.8
2017-Sep-16 20:00N 41°54' E 017°18'1818.0 150 / 271018.0 5.4 24.0
2017-Sep-16 19:00N 42°06' E 017°00'   130 / 281017.0 5.4 24.0

Dump ship's entire track history